Route Details

Aircraft Information
Group: North America Fleet
Types: B738, B752, B762, B763
Route Data
Distance: 803nm
Duration: 2h 35m
Origin METAR: KIAD 010459Z 03004KT 10SM BKN017 OVC034 02/M01 A3019 RMK AO2 T00171006
Dest. METAR: KMIA 010453Z 13004KT 10SM CLR 23/20 A3019 RMK AO2 SLP222 T02280200 402890222 $
Freight Data
(for Feb 1, 2023)
Load Factor:
80%
Manifested Cargo: 104,499lbs
Financial History
Total Freight: 1,825,182lbs
Average Load: 0lbs/flt
Fuel Used: 565,467lbs
Avg. Fuel Used: 0lbs/flt
Fuel Expense: $648,125
Avg. Fuel Expense: $0
Avg. Fuel Cost: $0/lbs
Total Gross Income: $2,552,329
Pilot Pay: $4,375
Total Expenses: $339,252
Total Revenue: $1,551,527
Average Revenue: $0

Capitol Logistics 371




KIAD
Washington Dulles International Airport
Dulles, Virginia
KMIA
Miami International Airport
Miami, Florida

Activity Log

Date Flight Route Aircraft Duration
01/03/2023 CPX371 JDUBB4 RRSIN GSO Q75 SLOJO/N0443F330 Q83 EFFAY/N0441F320 Q83 JEVED Q97 KENLL OMN HILEY7 B738 2h 18m
09/29/2022 CPX371 JDUBB4 RRSIN GSO CLT CAE JEKIP TEPTE GAWKS B738 2h 35m
11/19/2021 CPX412 JDUBB2 GSO J75 CAE J51 SAV J103 OMN HILEY7 B738 1h 24m
09/30/2021 CPX412 JDUBB2 GSO J75 CAE J51 SAV J103 OMN HILEY7 B738 3h 12m
08/18/2021 CPX412 JDUBB2 GSO J75 CAE J51 SAV J103 OMN HILEY7 B738 2h 23m
08/08/2021 CPX412 JDUBB2 GSO J75 CAE J51 SAV J103 OMN HILEY7 B738 2h 25m
05/13/2020 CPX202 KIAD/19C JDUBB3 MELTN GARIC Y307 JRDAN Y291 JENKS AR22 JORAY HILEY7 KMIA/I09 B763 2h 27m
04/16/2020 CPX202 JDUBB3 MELTN GARIC Y307 JRDAN Y291 JENKS AR22 JORAY HILEY7 B763 2h 27m
03/26/2020 CPX202 JCOBY3 COLIN J61 HUBBS KEMPR WETRO DIW AR22 JORAY HILEY7 B763 2h 31m
03/04/2020 CPX202 JDUBB2 SBV RAYVO Q87 TAALN Q83 JEVED Q97 WOPNR Q93 KENLL OMN HILEY7 B763 2h 31m
12/30/2019 CPX202 JDUBB2 GSO J75 CAE J51 SAV J103 OMN HILEY7 B763 2h 37m
11/06/2019 CPX202 JDUBB2 SBV RAYVO Q87 TAALN Q83 JEVED Q97 WOPNR Q93 KENLL OMN HILEY7 B763 2h 29m
10/30/2019 CPX412 JDUBB2 GSO J75 CAE J51 SAV J103 OMN HILEY7 B752 2h 37m
08/11/2019 CPX412 JDUBB2 GSO SAV J103 OMN J79 TRV ANNEY4 B752 2h 10m
06/22/2019 CPX202 JDUBB2 GSO J75 CAE J51 SAV J103 OMN HILEY7 B763 2h 20m
03/02/2019 CPX202 JCOBY3 COLIN J61 HUBBS KEMPR WETRO DIW AR22 JORAY HILEY7 B763 2h 23m
01/31/2019 CPX412 JCOBY3 COLIN J61 HUBBS KEMPR WETRO DIW AR22 JORAY HILEY7 B752 2h 45m
01/14/2019 CPX202 JDUBB2 GSO J75 CAE J51 SAV J103 OMN HILEY7 B763 2h 35m
12/14/2018 CPX312 JCOBY3 COLIN J61 HUBBS KEMPR WETRO DIW AR22 JORAY HILEY7 B752 2h 29m
12/12/2018 CPX122 JCOBY3 COLIN J61 HUBBS KEMPR WETRO DIW AR22 JORAY HILEY7 B763 2h 22m
12/07/2018 CPX312 JCOBY3 COLIN J61 HUBBS KEMPR WETRO DIW AR22 JORAY HILEY7 B752 2h 33m
12/06/2018 CPX112 JDUBB2 GSO J75 CAE J51 SAV J103 OMN HILEY7 MD11 2h 20m
11/29/2018 CPX312 JCOBY3 COLIN J61 HUBBS KEMPR WETRO DIW AR22 JORAY HILEY7 B752 2h 08m
11/28/2018 CPX122 JDUBB2 GSO J75 CAE J51 SAV J103 OMN HILEY7 B763 2h 29m
11/12/2018 CPX122 JDUBB2 GSO J75 CAE J51 SAV J103 OMN HILEY7 B763 2h 41m